createdAt,value
2018-11-10T00:00:24.699Z,2.60
2018-11-10T00:00:59.799Z,2.60
2018-11-10T00:01:34.861Z,2.50
2018-11-10T00:02:09.741Z,2.60
2018-11-10T00:02:45.399Z,2.60
2018-11-10T00:03:20.699Z,2.60
2018-11-10T00:03:55.819Z,2.60
2018-11-10T00:04:30.919Z,2.60
2018-11-10T00:05:06.439Z,2.70
2018-11-10T00:05:41.463Z,2.60
2018-11-10T00:06:16.419Z,2.60
2018-11-10T00:06:53.719Z,2.60
2018-11-10T00:07:28.679Z,2.60
2018-11-10T00:08:03.697Z,2.50
2018-11-10T00:08:38.523Z,2.60
2018-11-10T00:09:13.303Z,2.50
2018-11-10T00:09:48.400Z,2.60
2018-11-10T00:10:23.419Z,2.60
2018-11-10T00:10:58.399Z,2.60
2018-11-10T00:11:33.539Z,2.60
2018-11-10T00:12:08.359Z,2.60
2018-11-10T00:12:43.222Z,2.60
2018-11-10T00:13:18.159Z,2.70
2018-11-10T00:13:53.059Z,2.70
2018-11-10T00:14:28.040Z,2.70
2018-11-10T00:15:02.819Z,2.80
2018-11-10T00:15:38.168Z,2.80
2018-11-10T00:16:13.218Z,2.80
2018-11-10T00:16:48.141Z,2.80
2018-11-10T00:17:23.359Z,2.70
2018-11-10T00:17:58.379Z,2.70
2018-11-10T00:18:33.340Z,2.70
2018-11-10T00:19:08.119Z,2.70
2018-11-10T00:19:43.018Z,2.70
2018-11-10T00:20:17.840Z,2.70
2018-11-10T00:20:52.707Z,2.70
2018-11-10T00:21:28.099Z,2.70
2018-11-10T00:22:02.979Z,2.70
2018-11-10T00:22:38.740Z,2.70
2018-11-10T00:23:13.379Z,2.70
2018-11-10T00:23:48.259Z,2.70
2018-11-10T00:24:23.459Z,2.70
2018-11-10T00:24:58.683Z,2.80
2018-11-10T00:25:33.501Z,2.80
2018-11-10T00:26:08.319Z,2.80
2018-11-10T00:26:43.119Z,2.80
2018-11-10T00:27:18.179Z,2.80
2018-11-10T00:27:53.220Z,2.80
2018-11-10T00:28:28.062Z,2.80
2018-11-10T00:29:02.941Z,2.80
2018-11-10T00:29:37.899Z,2.80
2018-11-10T00:30:14.899Z,2.80
2018-11-10T00:30:49.483Z,2.80
2018-11-10T00:31:24.439Z,2.80
2018-11-10T00:31:59.500Z,2.90
2018-11-10T00:32:34.379Z,2.90
2018-11-10T00:33:09.239Z,2.90
2018-11-10T00:33:44.179Z,2.90
2018-11-10T00:34:22.342Z,2.90
2018-11-10T00:34:57.260Z,2.90
2018-11-10T00:35:32.179Z,2.90
2018-11-10T00:36:07.203Z,2.90
2018-11-10T00:36:42.000Z,2.90
2018-11-10T00:37:16.899Z,3.00
2018-11-10T00:37:51.743Z,3.00
2018-11-10T00:38:26.480Z,3.00
2018-11-10T00:39:01.380Z,3.00
2018-11-10T00:39:36.222Z,3.00
2018-11-10T00:40:13.159Z,3.00
2018-11-10T00:40:48.360Z,2.90
2018-11-10T00:41:23.000Z,2.90
2018-11-10T00:42:04.459Z,2.90
2018-11-10T00:42:39.579Z,3.00
2018-11-10T00:43:14.719Z,3.00
2018-11-10T00:43:49.519Z,3.00
2018-11-10T00:44:24.662Z,3.00
2018-11-10T00:44:59.759Z,3.10
2018-11-10T00:45:34.560Z,3.00
2018-11-10T00:46:09.760Z,3.00
2018-11-10T00:46:44.659Z,3.10
2018-11-10T00:47:20.180Z,3.10
2018-11-10T00:47:55.199Z,3.00
2018-11-10T00:48:30.079Z,3.10
2018-11-10T00:49:05.460Z,3.10
2018-11-10T00:49:40.569Z,3.10
2018-11-10T00:50:15.749Z,3.00
2018-11-10T00:50:50.720Z,3.10
2018-11-10T00:51:25.519Z,3.00
2018-11-10T00:52:00.920Z,3.00
2018-11-10T00:52:35.900Z,3.10
2018-11-10T00:53:10.921Z,3.10
2018-11-10T00:53:45.821Z,3.10
2018-11-10T00:54:20.839Z,3.10
2018-11-10T00:54:55.880Z,3.10
2018-11-10T00:56:33.880Z,3.10
2018-11-10T00:57:08.663Z,3.10
2018-11-10T00:57:43.759Z,3.10
2018-11-10T00:58:19.780Z,3.00
2018-11-10T00:58:57.940Z,3.00
2018-11-10T00:59:32.896Z,3.00
2018-11-10T01:00:10.088Z,3.00
2018-11-10T01:00:45.199Z,3.00
2018-11-10T01:01:20.041Z,3.00
2018-11-10T01:01:55.181Z,3.00
2018-11-10T01:02:30.640Z,3.00
2018-11-10T01:03:05.828Z,3.00
2018-11-10T01:03:40.740Z,3.00
2018-11-10T01:04:15.859Z,3.00
2018-11-10T01:04:50.882Z,3.10
2018-11-10T01:05:26.329Z,3.10
2018-11-10T01:06:01.661Z,3.10
2018-11-10T01:06:36.440Z,3.10
2018-11-10T01:07:11.661Z,3.10
2018-11-10T01:07:47.079Z,3.10
2018-11-10T01:08:22.040Z,3.10
2018-11-10T01:08:57.161Z,3.10
2018-11-10T01:09:31.999Z,3.10
2018-11-10T01:10:07.580Z,3.20
2018-11-10T01:10:46.039Z,3.10
2018-11-10T01:11:20.999Z,3.10
2018-11-10T01:11:56.241Z,3.10
2018-11-10T01:12:31.380Z,3.10
2018-11-10T01:13:06.500Z,3.10
2018-11-10T01:13:41.988Z,3.10
2018-11-10T01:14:17.239Z,3.10
2018-11-10T01:14:52.439Z,3.10
2018-11-10T01:15:27.579Z,3.00
2018-11-10T01:16:02.963Z,3.00
2018-11-10T01:16:37.899Z,3.00
2018-11-10T01:17:12.980Z,3.00
2018-11-10T01:17:48.379Z,3.00
2018-11-10T01:18:23.402Z,3.00
2018-11-10T01:18:58.319Z,3.00
2018-11-10T01:19:33.481Z,3.00
2018-11-10T01:20:09.599Z,3.00
2018-11-10T01:20:44.340Z,3.00
2018-11-10T01:21:19.240Z,3.00
2018-11-10T01:22:00.240Z,3.10
2018-11-10T01:22:35.282Z,3.10
2018-11-10T01:23:10.459Z,3.10
2018-11-10T01:23:45.021Z,3.10
2018-11-10T01:24:19.881Z,3.10
2018-11-10T01:24:55.103Z,3.00
2018-11-10T01:25:30.140Z,3.10
2018-11-10T01:26:05.320Z,3.00
2018-11-10T01:26:40.380Z,3.00
2018-11-10T01:27:15.060Z,3.00
2018-11-10T01:27:49.619Z,3.00
2018-11-10T01:28:24.159Z,3.00
2018-11-10T01:28:58.740Z,2.90
2018-11-10T01:29:33.362Z,3.00
2018-11-10T01:30:10.400Z,2.90
2018-11-10T01:30:44.865Z,2.90
2018-11-10T01:31:19.421Z,2.90
2018-11-10T01:31:54.040Z,2.80
2018-11-10T01:32:28.520Z,2.80
2018-11-10T01:33:03.227Z,2.90
2018-11-10T01:33:37.701Z,2.80
2018-11-10T01:34:12.419Z,2.90
2018-11-10T01:34:47.147Z,2.80
2018-11-10T01:35:21.840Z,2.80
2018-11-10T01:35:56.524Z,2.80
2018-11-10T01:36:31.040Z,2.80
2018-11-10T01:37:05.528Z,2.80
2018-11-10T01:37:40.160Z,2.80
2018-11-10T01:38:14.700Z,2.70
2018-11-10T01:38:49.367Z,2.80
2018-11-10T01:39:23.800Z,2.80
2018-11-10T01:39:58.407Z,2.80
2018-11-10T01:40:33.020Z,2.80
2018-11-10T01:41:07.499Z,2.80
2018-11-10T01:41:42.259Z,2.80
2018-11-10T01:42:17.265Z,2.80
2018-11-10T01:42:52.180Z,2.80
2018-11-10T01:43:27.321Z,2.90
2018-11-10T01:44:02.181Z,2.80
2018-11-10T01:44:37.200Z,2.80
2018-11-10T01:45:15.599Z,2.80
2018-11-10T01:45:50.560Z,2.80
2018-11-10T01:46:25.659Z,2.80
2018-11-10T01:47:00.621Z,2.70
2018-11-10T01:47:35.601Z,2.70
2018-11-10T01:48:11.760Z,2.70
2018-11-10T01:48:47.039Z,2.70
2018-11-10T01:49:21.919Z,2.70
2018-11-10T01:49:57.199Z,2.70
2018-11-10T01:50:32.488Z,2.70
2018-11-10T01:51:07.140Z,2.70
2018-11-10T01:51:41.608Z,2.70
2018-11-10T01:52:16.147Z,2.60
2018-11-10T01:52:50.820Z,2.70
2018-11-10T01:53:25.361Z,2.70
2018-11-10T01:54:00.200Z,2.70
2018-11-10T01:54:34.691Z,2.70
2018-11-10T01:55:09.988Z,2.60
2018-11-10T01:55:44.720Z,2.70
2018-11-10T01:56:19.319Z,2.70
2018-11-10T01:56:54.000Z,2.70
2018-11-10T01:57:28.579Z,2.70
2018-11-10T01:58:03.119Z,2.70
2018-11-10T01:58:37.768Z,2.70
2018-11-10T01:59:12.448Z,2.70
2018-11-10T01:59:46.860Z,2.70
2018-11-10T02:00:21.459Z,2.60
2018-11-10T02:00:56.127Z,2.60
2018-11-10T02:01:30.819Z,2.60
2018-11-10T02:02:05.549Z,2.60
2018-11-10T02:02:40.461Z,2.60
2018-11-10T02:03:15.021Z,2.60
2018-11-10T02:03:50.339Z,2.60
2018-11-10T02:04:25.521Z,2.60
2018-11-10T02:05:00.402Z,2.60
2018-11-10T02:05:35.282Z,2.60
2018-11-10T02:06:10.240Z,2.60
2018-11-10T02:06:45.701Z,2.60
2018-11-10T02:07:20.803Z,2.60
2018-11-10T02:07:55.842Z,2.60
2018-11-10T02:08:30.960Z,2.70
2018-11-10T02:09:07.583Z,2.60
2018-11-10T02:09:42.447Z,2.60
2018-11-10T02:10:17.639Z,2.60
2018-11-10T02:10:52.782Z,2.60
2018-11-10T02:11:28.081Z,2.60
2018-11-10T02:12:04.208Z,2.60
2018-11-10T02:12:40.140Z,2.60
2018-11-10T02:13:15.180Z,2.60
2018-11-10T02:13:50.420Z,2.70
2018-11-10T02:14:25.688Z,2.60
2018-11-10T02:15:00.539Z,2.60
2018-11-10T02:15:35.442Z,2.70
2018-11-10T02:16:10.621Z,2.60
2018-11-10T02:16:46.101Z,2.60
2018-11-10T02:17:20.968Z,2.50
2018-11-10T02:17:55.520Z,2.50
2018-11-10T02:18:30.360Z,2.50
2018-11-10T02:19:05.344Z,2.50
2018-11-10T02:19:40.463Z,2.50
2018-11-10T02:20:16.062Z,2.50
2018-11-10T02:20:51.201Z,2.50
2018-11-10T02:21:26.267Z,2.50
2018-11-10T02:22:01.220Z,2.50
2018-11-10T02:22:36.300Z,2.50
2018-11-10T02:23:11.341Z,2.50
2018-11-10T02:23:46.527Z,2.50
2018-11-10T02:24:21.300Z,2.50
2018-11-10T02:24:56.359Z,2.50
2018-11-10T02:25:31.520Z,2.50
2018-11-10T02:26:06.720Z,2.50
2018-11-10T02:26:44.882Z,2.50
2018-11-10T02:27:21.979Z,2.40
2018-11-10T02:27:57.079Z,2.40
2018-11-10T02:28:31.960Z,2.30
2018-11-10T02:29:06.827Z,2.30
2018-11-10T02:29:41.895Z,2.30
2018-11-10T02:30:16.787Z,2.20
2018-11-10T02:30:51.900Z,2.20
2018-11-10T02:31:26.960Z,2.20
2018-11-10T02:32:02.001Z,2.20
2018-11-10T02:32:37.259Z,2.20
2018-11-10T02:33:12.259Z,2.10
2018-11-10T02:33:47.167Z,2.10
2018-11-10T02:34:22.043Z,2.10
2018-11-10T02:34:57.139Z,2.00
2018-11-10T02:35:32.039Z,2.00
2018-11-10T02:36:07.082Z,2.00
2018-11-10T02:36:42.180Z,2.00
2018-11-10T02:37:17.402Z,2.00
2018-11-10T02:37:52.661Z,2.00
2018-11-10T02:38:27.803Z,2.10
2018-11-10T02:39:02.701Z,2.10
2018-11-10T02:39:37.740Z,2.10
2018-11-10T02:40:14.679Z,2.10
2018-11-10T02:40:49.740Z,2.10
2018-11-10T02:41:25.042Z,2.00
2018-11-10T02:42:00.221Z,2.00
2018-11-10T02:42:35.401Z,2.00
2018-11-10T02:43:10.720Z,2.00
2018-11-10T02:43:45.703Z,2.00
2018-11-10T02:44:20.836Z,2.00
2018-11-10T02:44:55.819Z,1.90
2018-11-10T02:45:31.060Z,2.00
2018-11-10T02:46:05.948Z,1.90
2018-11-10T02:46:40.783Z,1.90
2018-11-10T02:47:16.059Z,1.90
2018-11-10T02:47:51.160Z,1.90
2018-11-10T02:48:26.319Z,1.90
2018-11-10T02:49:01.321Z,1.90
2018-11-10T02:49:36.659Z,1.90
2018-11-10T02:50:12.100Z,1.90
2018-11-10T02:50:47.261Z,1.90
2018-11-10T02:51:22.359Z,1.90
2018-11-10T02:51:57.267Z,1.90
2018-11-10T02:52:32.396Z,1.90
2018-11-10T02:53:07.579Z,1.90
2018-11-10T02:53:42.748Z,1.90
2018-11-10T02:54:19.821Z,1.80
2018-11-10T02:54:55.162Z,1.80
2018-11-10T02:55:30.361Z,1.80
2018-11-10T02:56:05.442Z,1.90
2018-11-10T02:56:40.340Z,1.80
2018-11-10T02:57:15.540Z,1.80
2018-11-10T02:57:50.660Z,1.80
2018-11-10T02:58:25.780Z,1.80
2018-11-10T02:59:00.740Z,1.70
2018-11-10T02:59:35.580Z,1.70
2018-11-10T03:00:12.899Z,1.70
2018-11-10T03:00:47.908Z,1.70
2018-11-10T03:01:22.787Z,1.70
2018-11-10T03:01:58.047Z,1.60
2018-11-10T03:02:33.100Z,1.60
2018-11-10T03:03:08.222Z,1.60
2018-11-10T03:03:43.460Z,1.60
2018-11-10T03:04:18.621Z,1.60
2018-11-10T03:04:53.619Z,1.50
2018-11-10T03:05:28.607Z,1.50
2018-11-10T03:06:03.739Z,1.60
2018-11-10T03:06:38.760Z,1.60
2018-11-10T03:07:14.260Z,1.60
2018-11-10T03:07:49.299Z,1.60
2018-11-10T03:08:24.359Z,1.60
2018-11-10T03:09:00.000Z,1.60
2018-11-10T03:09:35.120Z,1.60
2018-11-10T03:10:11.421Z,1.60
2018-11-10T03:10:46.564Z,1.70
2018-11-10T03:11:21.667Z,1.70
2018-11-10T03:11:57.040Z,1.70
2018-11-10T03:12:32.182Z,1.60
2018-11-10T03:13:07.509Z,1.60
2018-11-10T03:13:42.719Z,1.70
2018-11-10T03:14:17.940Z,1.70
2018-11-10T03:14:52.999Z,1.70
2018-11-10T03:15:27.900Z,1.70
2018-11-10T03:16:02.860Z,1.70
2018-11-10T03:16:37.800Z,1.70
2018-11-10T03:17:14.401Z,1.70
2018-11-10T03:17:49.299Z,1.70
2018-11-10T03:18:23.980Z,1.70
2018-11-10T03:18:58.883Z,1.70
2018-11-10T03:19:33.568Z,1.70
2018-11-10T03:20:10.328Z,1.60
2018-11-10T03:20:45.223Z,1.60
2018-11-10T03:21:20.120Z,1.60
2018-11-10T03:21:55.140Z,1.60
2018-11-10T03:22:30.081Z,1.60
2018-11-10T03:23:05.044Z,1.50
2018-11-10T03:23:39.880Z,1.50
2018-11-10T03:24:14.740Z,1.50
2018-11-10T03:24:49.761Z,1.40
2018-11-10T03:25:24.927Z,1.50
2018-11-10T03:26:01.602Z,1.50
2018-11-10T03:26:36.223Z,1.50
2018-11-10T03:27:11.284Z,1.50
2018-11-10T03:27:46.240Z,1.50
2018-11-10T03:28:20.940Z,1.50
2018-11-10T03:28:55.567Z,1.50
2018-11-10T03:29:30.540Z,1.60
2018-11-10T03:30:05.488Z,1.60
2018-11-10T03:30:40.301Z,1.60
2018-11-10T03:31:15.148Z,1.60
2018-11-10T03:31:50.199Z,1.60
2018-11-10T03:32:25.009Z,1.60
2018-11-10T03:32:59.880Z,1.60
2018-11-10T03:33:34.759Z,1.60
2018-11-10T03:34:09.619Z,1.60
2018-11-10T03:34:44.500Z,1.60
2018-11-10T03:35:19.400Z,1.60
2018-11-10T03:35:54.260Z,1.60
2018-11-10T03:36:28.919Z,1.60
2018-11-10T03:37:03.899Z,1.60
2018-11-10T03:37:38.999Z,1.60
2018-11-10T03:38:13.720Z,1.60
2018-11-10T03:38:48.679Z,1.60
2018-11-10T03:39:23.468Z,1.60
2018-11-10T03:39:58.380Z,1.60
2018-11-10T03:40:33.205Z,1.60
2018-11-10T03:41:08.020Z,1.50
2018-11-10T03:41:43.480Z,1.50
2018-11-10T03:42:18.499Z,1.50
2018-11-10T03:42:53.788Z,1.60
2018-11-10T03:43:28.463Z,1.60
2018-11-10T03:44:03.639Z,1.60
2018-11-10T03:44:38.760Z,1.60
2018-11-10T03:45:13.859Z,1.70
2018-11-10T03:45:48.460Z,1.70
2018-11-10T03:46:23.200Z,1.70
2018-11-10T03:46:57.888Z,1.70
2018-11-10T03:47:32.342Z,1.70
2018-11-10T03:48:06.960Z,1.70
2018-11-10T03:48:41.485Z,1.70
2018-11-10T03:49:16.139Z,1.70
2018-11-10T03:49:51.067Z,1.70
2018-11-10T03:50:25.861Z,1.70
2018-11-10T03:51:00.660Z,1.70
2018-11-10T03:51:35.400Z,1.80
2018-11-10T03:52:09.980Z,1.80
2018-11-10T03:52:44.762Z,1.80
2018-11-10T03:53:19.181Z,1.80
2018-11-10T03:53:53.979Z,1.80
2018-11-10T03:54:28.661Z,1.80
2018-11-10T03:55:03.260Z,1.80
2018-11-10T03:55:37.880Z,1.80
2018-11-10T03:56:12.500Z,1.80
2018-11-10T03:56:47.340Z,1.80
2018-11-10T03:58:03.399Z,1.80
2018-11-10T03:58:38.579Z,1.70
2018-11-10T03:59:13.761Z,1.70
2018-11-10T03:59:48.739Z,1.60
2018-11-10T04:00:23.400Z,1.60
2018-11-10T04:00:58.280Z,1.50
2018-11-10T04:01:33.401Z,1.50
2018-11-10T04:02:08.440Z,1.50
2018-11-10T04:02:44.420Z,1.50
2018-11-10T04:03:19.199Z,1.50
2018-11-10T04:03:54.059Z,1.50
2018-11-10T04:04:29.088Z,1.50
2018-11-10T04:05:04.002Z,1.50
2018-11-10T04:05:38.763Z,1.50
2018-11-10T04:06:13.702Z,1.50
2018-11-10T04:06:48.739Z,1.50
2018-11-10T04:07:23.860Z,1.50
2018-11-10T04:07:59.761Z,1.50
2018-11-10T04:08:34.620Z,1.50
2018-11-10T04:09:10.022Z,1.50
2018-11-10T04:09:44.840Z,1.50
2018-11-10T04:10:19.760Z,1.50
2018-11-10T04:10:54.640Z,1.50
2018-11-10T04:11:29.602Z,1.50
2018-11-10T04:12:04.801Z,1.50
2018-11-10T04:12:39.499Z,1.40
2018-11-10T04:13:14.241Z,1.40
2018-11-10T04:13:49.248Z,1.40
2018-11-10T04:14:24.179Z,1.30
2018-11-10T04:14:58.999Z,1.30
2018-11-10T04:15:34.159Z,1.40
2018-11-10T04:16:09.059Z,1.40
2018-11-10T04:16:44.261Z,1.40
2018-11-10T04:17:19.379Z,1.40
2018-11-10T04:17:54.280Z,1.50
2018-11-10T04:18:29.340Z,1.50
2018-11-10T04:19:04.423Z,1.50
2018-11-10T04:19:39.459Z,1.50
2018-11-10T04:20:14.340Z,1.50
2018-11-10T04:20:49.379Z,1.50
2018-11-10T04:21:24.545Z,1.40
2018-11-10T04:21:59.861Z,1.40
2018-11-10T04:22:36.403Z,1.40
2018-11-10T04:23:11.223Z,1.40
2018-11-10T04:23:46.119Z,1.40
2018-11-10T04:24:21.081Z,1.40
2018-11-10T04:24:56.080Z,1.40
2018-11-10T04:25:31.271Z,1.40
2018-11-10T04:26:06.281Z,1.40
2018-11-10T04:26:41.440Z,1.40
2018-11-10T04:27:17.008Z,1.40
2018-11-10T04:27:51.902Z,1.40
2018-11-10T04:28:27.001Z,1.40
2018-11-10T04:29:01.849Z,1.30
2018-11-10T04:29:36.840Z,1.30
2018-11-10T04:30:12.399Z,1.30
2018-11-10T04:30:48.880Z,1.30
2018-11-10T04:31:23.680Z,1.30
2018-11-10T04:31:58.460Z,1.40
2018-11-10T04:32:33.700Z,1.40
2018-11-10T04:33:08.640Z,1.40
2018-11-10T04:33:44.359Z,1.30
2018-11-10T04:34:19.480Z,1.30
2018-11-10T04:34:54.583Z,1.40
2018-11-10T04:35:29.560Z,1.30
2018-11-10T04:36:04.215Z,1.30
2018-11-10T04:36:38.973Z,1.30
2018-11-10T04:37:13.694Z,1.30
2018-11-10T04:37:48.494Z,1.30
2018-11-10T04:38:23.234Z,1.30
2018-11-10T04:38:58.161Z,1.30
2018-11-10T04:39:32.962Z,1.30
2018-11-10T04:40:08.494Z,1.30
2018-11-10T04:40:43.322Z,1.30
2018-11-10T04:41:18.122Z,1.30
2018-11-10T04:41:53.154Z,1.30
2018-11-10T04:42:28.317Z,1.30
2018-11-10T04:43:03.415Z,1.30
2018-11-10T04:43:38.434Z,1.30
2018-11-10T04:44:13.474Z,1.30
2018-11-10T04:44:48.634Z,1.30
2018-11-10T04:45:23.894Z,1.30
2018-11-10T04:45:59.014Z,1.40
2018-11-10T04:46:34.198Z,1.40
2018-11-10T04:47:09.534Z,1.40
2018-11-10T04:47:44.735Z,1.40
2018-11-10T04:48:19.714Z,1.40
2018-11-10T04:48:54.934Z,1.40
2018-11-10T04:49:30.154Z,1.50
2018-11-10T04:50:06.334Z,1.40
2018-11-10T04:50:41.654Z,1.40
2018-11-10T04:51:16.634Z,1.40
2018-11-10T04:51:52.154Z,1.40
2018-11-10T04:52:27.017Z,1.40
2018-11-10T04:53:02.139Z,1.40
2018-11-10T04:53:37.194Z,1.40
2018-11-10T04:54:12.174Z,1.40
2018-11-10T04:54:47.582Z,1.40
2018-11-10T04:55:22.743Z,1.40
2018-11-10T04:55:57.749Z,1.40
2018-11-10T04:56:32.774Z,1.30
2018-11-10T04:57:07.922Z,1.30
2018-11-10T04:57:43.334Z,1.40
2018-11-10T04:58:18.618Z,1.40
2018-11-10T04:58:54.294Z,1.40
2018-11-10T04:59:29.756Z,1.40
2018-11-10T05:00:05.283Z,1.30
2018-11-10T05:00:40.494Z,1.30
2018-11-10T05:01:15.651Z,1.20
2018-11-10T05:01:51.375Z,1.20
2018-11-10T05:02:26.542Z,1.20
2018-11-10T05:03:01.775Z,1.20
2018-11-10T05:03:37.014Z,1.20
2018-11-10T05:04:12.194Z,1.20
2018-11-10T05:04:47.254Z,1.20
2018-11-10T05:05:25.075Z,1.20
2018-11-10T05:06:00.414Z,1.20
2018-11-10T05:06:35.454Z,1.30
2018-11-10T05:07:11.394Z,1.30
2018-11-10T05:07:46.823Z,1.30
2018-11-10T05:08:22.084Z,1.30
2018-11-10T05:08:57.343Z,1.30
2018-11-10T05:09:32.834Z,1.30
2018-11-10T05:10:09.894Z,1.30
2018-11-10T05:10:45.394Z,1.30
2018-11-10T05:11:20.878Z,1.30
2018-11-10T05:11:56.694Z,1.30
2018-11-10T05:12:32.074Z,1.30
2018-11-10T05:13:07.582Z,1.30
2018-11-10T05:13:43.404Z,1.30
2018-11-10T05:14:18.849Z,1.30
2018-11-10T05:14:54.254Z,1.20
2018-11-10T05:15:29.822Z,1.20
2018-11-10T05:16:05.354Z,1.20
2018-11-10T05:16:40.614Z,1.20
2018-11-10T05:17:16.194Z,1.20
2018-11-10T05:17:51.394Z,1.20
2018-11-10T05:18:26.713Z,1.20
2018-11-10T05:19:01.722Z,1.20
2018-11-10T05:19:37.262Z,1.20
2018-11-10T05:20:14.374Z,1.20
2018-11-10T05:20:49.942Z,1.10
2018-11-10T05:21:25.437Z,1.10
2018-11-10T05:22:00.574Z,1.10
2018-11-10T05:22:37.622Z,1.20
2018-11-10T05:23:12.934Z,1.20
2018-11-10T05:23:48.102Z,1.20
2018-11-10T05:24:23.415Z,1.20
2018-11-10T05:24:58.974Z,1.20
2018-11-10T05:25:34.446Z,1.20
2018-11-10T05:26:09.774Z,1.20
2018-11-10T05:26:44.977Z,1.20
2018-11-10T05:27:20.234Z,1.10
2018-11-10T05:27:55.422Z,1.10
2018-11-10T05:28:30.522Z,1.10
2018-11-10T05:29:06.654Z,1.10
2018-11-10T05:29:42.202Z,1.10
2018-11-10T05:30:17.334Z,1.10
2018-11-10T05:30:52.581Z,1.10
2018-11-10T05:31:27.794Z,1.10
2018-11-10T05:32:03.054Z,1.10
2018-11-10T05:32:38.376Z,1.10
2018-11-10T05:33:13.402Z,1.10
2018-11-10T05:33:48.385Z,1.00
2018-11-10T05:34:23.417Z,1.10
2018-11-10T05:34:59.282Z,1.10
2018-11-10T05:35:34.333Z,1.10
2018-11-10T05:36:09.522Z,1.10
2018-11-10T05:36:44.602Z,1.10
2018-11-10T05:37:19.714Z,1.10
2018-11-10T05:37:54.674Z,1.10
2018-11-10T05:38:29.782Z,1.10
2018-11-10T05:39:05.554Z,1.10
2018-11-10T05:39:40.374Z,1.10
2018-11-10T05:40:15.494Z,1.10
2018-11-10T05:40:50.610Z,1.10
2018-11-10T05:41:25.774Z,1.10
2018-11-10T05:42:00.674Z,1.10
2018-11-10T05:42:35.734Z,1.10
2018-11-10T05:43:10.716Z,1.00
2018-11-10T05:43:45.717Z,1.00
2018-11-10T05:44:20.721Z,1.00
2018-11-10T05:44:55.933Z,1.00
2018-11-10T05:45:30.794Z,1.00
2018-11-10T05:46:05.858Z,1.00
2018-11-10T05:46:40.894Z,0.90
2018-11-10T05:47:16.054Z,0.90
2018-11-10T05:47:51.175Z,0.90
2018-11-10T05:48:26.082Z,0.90
2018-11-10T05:49:01.174Z,0.90
2018-11-10T05:49:36.154Z,0.90
2018-11-10T05:50:11.315Z,0.90
2018-11-10T05:50:46.294Z,0.90
2018-11-10T05:51:21.582Z,1.00
2018-11-10T05:51:56.734Z,1.00
2018-11-10T05:52:31.922Z,1.00
2018-11-10T05:53:07.162Z,1.10
2018-11-10T05:53:42.262Z,1.10
2018-11-10T05:54:17.494Z,1.20
2018-11-10T05:54:52.410Z,1.20
2018-11-10T05:55:27.527Z,1.20
2018-11-10T05:56:02.481Z,1.20
2018-11-10T05:56:37.241Z,1.20
2018-11-10T05:57:12.291Z,1.30
2018-11-10T05:57:47.260Z,1.30
2018-11-10T05:58:22.319Z,1.30
2018-11-10T05:58:57.202Z,1.30
2018-11-10T05:59:32.280Z,1.30
2018-11-10T06:00:09.445Z,1.20
2018-11-10T06:00:44.921Z,1.20
2018-11-10T06:01:19.908Z,1.20
2018-11-10T06:01:54.959Z,1.20
2018-11-10T06:02:29.820Z,1.30
2018-11-10T06:03:04.885Z,1.30
2018-11-10T06:03:40.300Z,1.30
2018-11-10T06:04:15.320Z,1.30
2018-11-10T06:04:50.180Z,1.30
2018-11-10T06:05:25.080Z,1.30
2018-11-10T06:06:00.102Z,1.30
2018-11-10T06:06:35.239Z,1.30
2018-11-10T06:07:10.340Z,1.30
2018-11-10T06:07:45.420Z,1.30
2018-11-10T06:08:20.379Z,1.30
2018-11-10T06:08:55.475Z,1.30
2018-11-10T06:09:30.695Z,1.30
2018-11-10T06:10:06.801Z,1.30
2018-11-10T06:10:41.932Z,1.40
2018-11-10T06:11:17.286Z,1.40
2018-11-10T06:11:52.299Z,1.40
2018-11-10T06:12:27.699Z,1.40
2018-11-10T06:13:02.740Z,1.40
2018-11-10T06:13:37.880Z,1.40
2018-11-10T06:14:13.140Z,1.40
2018-11-10T06:14:48.201Z,1.40
2018-11-10T06:15:23.204Z,1.40
2018-11-10T06:15:58.430Z,1.50
2018-11-10T06:16:33.540Z,1.50
2018-11-10T06:17:08.719Z,1.50
2018-11-10T06:17:43.607Z,1.60
2018-11-10T06:18:18.619Z,1.60
2018-11-10T06:18:53.618Z,1.60
2018-11-10T06:19:28.919Z,1.60
2018-11-10T06:20:04.054Z,1.60
2018-11-10T06:20:39.021Z,1.60
2018-11-10T06:21:14.259Z,1.70
2018-11-10T06:21:49.299Z,1.70
2018-11-10T06:22:24.281Z,1.70
2018-11-10T06:22:59.180Z,1.70
2018-11-10T06:23:34.201Z,1.70
2018-11-10T06:24:09.261Z,1.70
2018-11-10T06:24:44.201Z,1.70
2018-11-10T06:25:19.326Z,1.70
2018-11-10T06:25:54.333Z,1.70
2018-11-10T06:26:29.759Z,1.70
2018-11-10T06:27:04.800Z,1.70
2018-11-10T06:27:40.068Z,1.70
2018-11-10T06:28:15.280Z,1.70
2018-11-10T06:28:50.320Z,1.70
2018-11-10T06:29:25.538Z,1.80
2018-11-10T06:30:00.679Z,1.80
2018-11-10T06:30:35.639Z,1.80
2018-11-10T06:31:10.520Z,1.80
2018-11-10T06:31:45.619Z,1.80
2018-11-10T06:32:20.522Z,1.90
2018-11-10T06:32:55.609Z,1.90
2018-11-10T06:33:30.881Z,1.90
2018-11-10T06:34:06.209Z,1.90
2018-11-10T06:34:41.262Z,1.90
2018-11-10T06:35:16.320Z,1.90
2018-11-10T06:35:51.201Z,2.00
2018-11-10T06:36:26.304Z,2.00
2018-11-10T06:37:01.524Z,2.00
2018-11-10T06:37:36.640Z,2.00
2018-11-10T06:38:11.720Z,2.00
2018-11-10T06:38:46.720Z,2.00
2018-11-10T06:39:21.959Z,2.10
2018-11-10T06:39:57.079Z,2.00
2018-11-10T06:40:32.079Z,2.00
2018-11-10T06:41:07.828Z,2.00
2018-11-10T06:41:43.281Z,2.00
2018-11-10T06:42:18.320Z,2.00
2018-11-10T06:42:53.261Z,2.00
2018-11-10T06:43:28.320Z,2.00
2018-11-10T06:44:03.379Z,2.00
2018-11-10T06:44:38.381Z,1.90
2018-11-10T06:45:13.199Z,1.90
2018-11-10T06:45:48.303Z,2.00
2018-11-10T06:46:23.259Z,2.00
2018-11-10T06:46:58.337Z,2.00
2018-11-10T06:47:33.299Z,2.00
2018-11-10T06:48:08.319Z,2.00
2018-11-10T06:48:43.202Z,2.10
2018-11-10T06:49:18.279Z,2.10
2018-11-10T06:49:53.441Z,2.10
2018-11-10T06:50:28.600Z,2.10
2018-11-10T06:51:03.668Z,2.20
2018-11-10T06:51:38.780Z,2.20
2018-11-10T06:52:14.060Z,2.30
2018-11-10T06:52:49.338Z,2.40
2018-11-10T06:53:24.340Z,2.50
2018-11-10T06:53:59.459Z,2.60
2018-11-10T06:54:34.628Z,2.70
2018-11-10T06:55:11.042Z,2.80
2018-11-10T06:55:46.279Z,2.90
2018-11-10T06:56:21.319Z,3.00
2018-11-10T06:56:56.248Z,3.10
2018-11-10T06:57:31.119Z,3.10
2018-11-10T06:58:06.280Z,3.20
2018-11-10T06:58:41.180Z,3.30
2018-11-10T06:59:16.048Z,3.30
2018-11-10T06:59:51.460Z,3.40
2018-11-10T07:00:26.479Z,3.40
2018-11-10T07:01:01.439Z,3.40
2018-11-10T07:01:36.480Z,3.50
2018-11-10T07:02:11.580Z,3.50
2018-11-10T07:02:46.579Z,3.60
2018-11-10T07:03:21.492Z,3.70
2018-11-10T07:03:56.453Z,3.80
2018-11-10T07:04:31.869Z,3.80
2018-11-10T07:05:07.622Z,3.90
2018-11-10T07:05:42.582Z,3.90
2018-11-10T07:06:17.400Z,4.00
2018-11-10T07:06:52.607Z,4.10
2018-11-10T07:07:27.859Z,4.10
2018-11-10T07:08:02.840Z,4.20
2018-11-10T07:08:37.699Z,4.30
2018-11-10T07:09:12.975Z,4.40
2018-11-10T07:09:48.103Z,4.50
2018-11-10T07:10:23.140Z,4.60
2018-11-10T07:10:59.400Z,4.70
2018-11-10T07:11:34.540Z,4.80
2018-11-10T07:12:09.559Z,4.90
2018-11-10T07:12:44.539Z,5.00
2018-11-10T07:13:19.607Z,5.10
2018-11-10T07:13:54.559Z,5.20
2018-11-10T07:14:29.479Z,5.30
2018-11-10T07:15:04.823Z,5.40
2018-11-10T07:15:39.739Z,5.50
2018-11-10T07:16:14.762Z,5.60
2018-11-10T07:16:49.600Z,5.70
2018-11-10T07:17:24.878Z,5.90
2018-11-10T07:18:00.278Z,6.00
2018-11-10T07:18:35.220Z,6.10
2018-11-10T07:19:10.379Z,6.20
2018-11-10T07:19:45.759Z,6.30
2018-11-10T07:20:20.839Z,6.50
2018-11-10T07:20:55.820Z,6.50
2018-11-10T07:21:31.000Z,6.70
2018-11-10T07:22:06.199Z,6.70
2018-11-10T07:22:41.801Z,6.90
2018-11-10T07:23:17.900Z,7.00
2018-11-10T07:23:52.941Z,7.10
2018-11-10T07:24:28.000Z,7.30
2018-11-10T07:25:03.249Z,7.30
2018-11-10T07:25:38.148Z,7.40
2018-11-10T07:26:13.780Z,7.50
2018-11-10T07:26:48.779Z,7.60
2018-11-10T07:27:23.679Z,7.70
2018-11-10T07:27:58.859Z,7.80
2018-11-10T07:28:34.140Z,7.80
2018-11-10T07:29:09.000Z,7.90
2018-11-10T07:29:44.009Z,7.90
2018-11-10T07:30:18.981Z,8.00
2018-11-10T07:30:54.179Z,7.90
2018-11-10T07:31:29.419Z,7.80
2018-11-10T07:32:04.574Z,7.70
2018-11-10T07:32:39.708Z,7.50
2018-11-10T07:34:17.720Z,7.40
2018-11-10T07:34:52.761Z,7.30
2018-11-10T07:35:27.760Z,7.00
2018-11-10T07:36:02.700Z,6.90
2018-11-10T07:36:37.648Z,6.80
2018-11-10T07:37:12.566Z,6.80
2018-11-10T07:37:47.720Z,6.70
2018-11-10T07:38:22.880Z,6.70
2018-11-10T07:38:57.720Z,6.60
2018-11-10T07:39:32.720Z,6.50
2018-11-10T07:40:09.260Z,6.50
2018-11-10T07:40:44.179Z,6.40
2018-11-10T07:41:19.140Z,6.30
2018-11-10T07:41:54.000Z,6.30
2018-11-10T07:42:29.160Z,6.20
2018-11-10T07:43:04.130Z,6.10
2018-11-10T07:43:38.979Z,6.10
2018-11-10T07:44:13.920Z,6.00
2018-11-10T07:44:48.699Z,5.90
2018-11-10T07:45:23.679Z,5.80
2018-11-10T07:45:58.580Z,5.70
2018-11-10T07:46:33.659Z,5.70
2018-11-10T07:47:08.720Z,5.60
2018-11-10T07:47:44.582Z,5.50
2018-11-10T07:48:19.459Z,5.50
2018-11-10T07:48:54.259Z,5.50
2018-11-10T07:49:29.152Z,5.40
2018-11-10T07:50:04.122Z,5.40
2018-11-10T07:50:38.979Z,5.40